Time;durP1;ratioP1;P1;durP2;ratioP2;P2;SDS_P1;SDS_P2;PMS_P1;PMS_P2;Temp;Humidity;BMP_temperature;BMP_pressure;BME280_temperature;BME280_humidity;BME280_pressure;Samples;Min_cycle;Max_cycle;Signal;HPM_P1;HPM_P2
2024/02/10 00:01:56;;;;;;;14.27;6.90;;;7.80;99.90;;;;;;4953421;29;20051;-88
2024/02/10 00:04:23;;;;;;;15.68;7.53;;;7.90;99.90;;;;;;4937356;29;20162;-87
2024/02/10 00:06:50;;;;;;;16.85;7.57;;;7.80;99.90;;;;;;4952955;29;20090;-88
2024/02/10 00:09:16;;;;;;;14.65;7.63;;;7.90;99.90;;;;;;4937027;29;20516;-88
2024/02/10 00:11:43;;;;;;;13.23;7.15;;;7.90;99.90;;;;;;4937043;29;20040;-88
2024/02/10 00:14:13;;;;;;;15.50;7.53;;;7.80;99.90;;;;;;4953188;29;20039;-88
2024/02/10 00:16:40;;;;;;;15.13;7.32;;;7.80;99.90;;;;;;4937454;29;20126;-88
2024/02/10 00:19:09;;;;;;;14.55;7.10;;;7.90;99.90;;;;;;4937673;29;20179;-88
2024/02/10 00:21:36;;;;;;;10.50;6.25;;;7.80;99.90;;;;;;4937277;29;20071;-88
2024/02/10 00:24:04;;;;;;;12.45;7.30;;;8.30;99.90;;;;;;4937716;29;20527;-87
2024/02/10 00:26:31;;;;;;;11.40;7.07;;;7.90;99.90;;;;;;4937338;29;20134;-88
2024/02/10 00:28:58;;;;;;;12.45;7.25;;;7.80;99.90;;;;;;4937364;29;20532;-88
2024/02/10 00:31:25;;;;;;;15.02;7.13;;;8.70;99.90;;;;;;4933736;29;20131;-88
2024/02/10 00:33:52;;;;;;;14.43;7.50;;;7.80;99.90;;;;;;4946547;29;20097;-88
2024/02/10 00:36:19;;;;;;;15.68;7.13;;;7.90;99.90;;;;;;4950204;29;20039;-88
2024/02/10 00:38:47;;;;;;;16.95;9.00;;;7.80;99.90;;;;;;4946425;29;20390;-88
2024/02/10 00:41:16;;;;;;;14.32;8.82;;;7.70;99.90;;;;;;4937167;29;20043;-88
2024/02/10 00:43:43;;;;;;;15.43;9.02;;;7.70;99.90;;;;;;4937179;29;20039;-88
2024/02/10 00:46:15;;;;;;;18.15;8.90;;;7.70;99.90;;;;;;4950669;29;20100;-88
2024/02/10 00:48:43;;;;;;;20.55;8.77;;;7.70;99.90;;;;;;4937002;29;20421;-88
2024/02/10 00:51:10;;;;;;;17.52;8.57;;;7.90;99.90;;;;;;4937418;29;20043;-88
2024/02/10 00:53:39;;;;;;;16.75;8.25;;;7.90;99.90;;;;;;4952558;29;20036;-88
2024/02/10 00:56:10;;;;;;;21.73;8.10;;;7.70;99.90;;;;;;4936832;29;20047;-88
2024/02/10 00:58:43;;;;;;;13.80;7.03;;;7.70;99.90;;;;;;4936862;29;20071;-88
2024/02/10 01:01:20;;;;;;;16.80;7.45;;;7.60;99.90;;;;;;4936678;29;20062;-88
2024/02/10 01:03:47;;;;;;;13.80;7.55;;;8.00;99.90;;;;;;4937331;29;20039;-88
2024/02/10 01:06:16;;;;;;;16.85;8.18;;;7.90;99.90;;;;;;4936943;29;20062;-89
2024/02/10 01:08:48;;;;;;;12.25;7.53;;;7.90;99.90;;;;;;4950358;29;20079;-89
2024/02/10 01:11:16;;;;;;;12.82;7.22;;;8.10;99.90;;;;;;4936649;29;20040;-89
2024/02/10 01:13:45;;;;;;;12.95;7.53;;;7.60;99.90;;;;;;4937283;29;20034;-88
2024/02/10 01:16:14;;;;;;;14.32;7.32;;;7.60;99.90;;;;;;4940304;29;20662;-89
2024/02/10 01:18:42;;;;;;;15.02;7.78;;;7.60;99.90;;;;;;4940214;29;20048;-88
2024/02/10 01:21:09;;;;;;;18.38;7.68;;;7.60;99.90;;;;;;4937232;29;20040;-89
2024/02/10 01:23:41;;;;;;;13.15;7.05;;;7.70;99.90;;;;;;4925096;29;20062;-88
2024/02/10 01:26:09;;;;;;;13.13;7.95;;;7.50;99.90;;;;;;4940405;29;20051;-89
2024/02/10 01:28:36;;;;;;;15.15;8.05;;;8.40;99.90;;;;;;4948071;29;20075;-89
2024/02/10 01:31:06;;;;;;;13.73;7.38;;;7.50;99.90;;;;;;4936237;29;20413;-88
2024/02/10 01:33:36;;;;;;;15.07;8.05;;;7.60;99.90;;;;;;4940336;29;20069;-88
2024/02/10 01:36:03;;;;;;;15.85;7.97;;;7.50;99.90;;;;;;4936933;29;20127;-88
2024/02/10 01:38:37;;;;;;;17.20;8.10;;;7.50;99.90;;;;;;4947312;29;20050;-88
2024/02/10 01:41:04;;;;;;;20.38;9.38;;;7.60;99.90;;;;;;4939882;29;20382;-89
2024/02/10 01:43:31;;;;;;;17.08;9.45;;;7.50;99.90;;;;;;4956038;29;20046;-89
2024/02/10 01:45:57;;;;;;;15.60;8.60;;;8.30;99.90;;;;;;4940199;29;20036;-88
2024/02/10 01:48:24;;;;;;;16.08;8.98;;;7.50;99.90;;;;;;4940378;29;20489;-88
2024/02/10 01:50:51;;;;;;;14.85;8.80;;;7.60;99.90;;;;;;4939982;29;20046;-88
2024/02/10 01:53:18;;;;;;;14.30;8.60;;;7.60;99.90;;;;;;4944496;29;20040;-88
2024/02/10 01:55:45;;;;;;;14.80;8.98;;;7.70;99.90;;;;;;4937305;29;20088;-88
2024/02/10 01:58:15;;;;;;;15.82;8.43;;;7.70;99.90;;;;;;4939030;29;20027;-89
2024/02/10 02:00:42;;;;;;;17.13;9.13;;;7.60;99.90;;;;;;4939832;29;20048;-88
2024/02/10 02:03:09;;;;;;;20.65;9.43;;;7.60;99.90;;;;;;4939452;29;20408;-88
2024/02/10 02:05:35;;;;;;;13.57;8.15;;;8.20;99.90;;;;;;4939644;29;20058;-88
2024/02/10 02:08:03;;;;;;;18.85;8.85;;;7.80;99.90;;;;;;4939982;29;20054;-88
2024/02/10 02:10:29;;;;;;;21.95;9.32;;;7.60;99.90;;;;;;4955671;29;20052;-88
2024/02/10 02:12:57;;;;;;;18.40;8.85;;;7.60;99.90;;;;;;4939621;29;20511;-88
2024/02/10 02:15:27;;;;;;;18.95;8.85;;;7.60;99.90;;;;;;4939700;29;20126;-88
2024/02/10 02:17:57;;;;;;;18.77;9.32;;;7.60;99.90;;;;;;4939264;29;20035;-89
2024/02/10 02:20:25;;;;;;;18.55;8.68;;;7.60;99.90;;;;;;4939693;29;20039;-89
2024/02/10 02:22:53;;;;;;;18.75;8.82;;;7.60;99.90;;;;;;4936259;29;20122;-89
2024/02/10 02:25:20;;;;;;;25.02;9.07;;;7.60;99.90;;;;;;4921964;29;20651;-89
2024/02/10 02:27:47;;;;;;;17.20;8.90;;;7.90;99.90;;;;;;4932774;29;20038;-88
2024/02/10 02:30:15;;;;;;;14.63;9.13;;;8.30;99.90;;;;;;4939470;29;20153;-89
2024/02/10 02:32:42;;;;;;;16.83;9.38;;;7.80;99.90;;;;;;4938433;29;20081;-89
2024/02/10 02:35:11;;;;;;;17.15;9.60;;;7.50;99.90;;;;;;4942243;29;20488;-89
2024/02/10 02:37:43;;;;;;;18.67;9.25;;;7.50;99.90;;;;;;4936975;29;20519;-89
2024/02/10 02:40:11;;;;;;;14.48;8.85;;;8.10;99.90;;;;;;4951605;29;20078;-89
2024/02/10 02:42:38;;;;;;;14.45;8.30;;;7.40;99.90;;;;;;4935920;29;20047;-89
2024/02/10 02:45:07;;;;;;;15.75;9.00;;;7.40;99.90;;;;;;4945539;29;20404;-89
2024/02/10 02:47:37;;;;;;;16.08;8.38;;;7.40;99.90;;;;;;4938808;29;20043;-88
2024/02/10 02:50:09;;;;;;;14.98;9.27;;;7.40;99.90;;;;;;4939286;29;20047;-88
2024/02/10 02:52:37;;;;;;;18.70;8.85;;;7.40;99.90;;;;;;4933266;29;20098;-88
2024/02/10 02:55:05;;;;;;;16.60;8.60;;;7.40;99.90;;;;;;4932722;29;20385;-89
2024/02/10 02:57:33;;;;;;;16.05;8.52;;;7.40;99.90;;;;;;4930221;29;20040;-89
2024/02/10 03:00:00;;;;;;;15.95;8.68;;;7.70;99.90;;;;;;4932808;29;20047;-89
2024/02/10 03:02:30;;;;;;;15.82;8.52;;;7.40;99.90;;;;;;4944035;29;20036;-89
2024/02/10 03:04:56;;;;;;;19.85;8.63;;;7.40;99.90;;;;;;4937201;29;20127;-88
2024/02/10 03:07:30;;;;;;;16.35;8.38;;;7.60;99.90;;;;;;4936319;29;20130;-89
2024/02/10 03:09:56;;;;;;;17.50;8.38;;;7.80;99.90;;;;;;4938291;29;20518;-89
2024/02/10 03:12:23;;;;;;;20.58;9.07;;;7.40;99.90;;;;;;4937034;29;20043;-88
2024/02/10 03:14:50;;;;;;;18.35;8.98;;;7.40;99.90;;;;;;4938812;29;20397;-88
2024/02/10 03:17:16;;;;;;;15.73;8.73;;;7.40;99.90;;;;;;4941583;29;20485;-88
2024/02/10 03:19:46;;;;;;;17.13;9.23;;;7.30;99.90;;;;;;4938600;29;20044;-89
2024/02/10 03:22:13;;;;;;;15.68;8.68;;;7.50;99.90;;;;;;4949649;29;20515;-90
2024/02/10 03:24:42;;;;;;;23.00;8.27;;;7.30;99.90;;;;;;4937030;29;20662;-88
2024/02/10 03:27:08;;;;;;;16.98;9.15;;;7.40;99.90;;;;;;4938806;29;20075;-88
2024/02/10 03:29:35;;;;;;;15.35;8.75;;;7.30;99.90;;;;;;4941483;29;20114;-89
2024/02/10 03:32:03;;;;;;;15.15;8.30;;;7.40;99.90;;;;;;4938493;29;20048;-89
2024/02/10 03:34:30;;;;;;;16.60;8.70;;;7.40;99.90;;;;;;4938244;29;20039;-88
2024/02/10 03:36:59;;;;;;;14.15;8.90;;;7.40;99.90;;;;;;4938059;29;20046;-89
2024/02/10 03:39:26;;;;;;;16.30;8.93;;;7.40;99.90;;;;;;4938189;29;20040;-88
2024/02/10 03:41:52;;;;;;;16.48;9.10;;;7.50;99.90;;;;;;4938214;29;20035;-86
2024/02/10 03:44:22;;;;;;;16.05;9.38;;;7.90;99.90;;;;;;4937646;29;20044;-86
2024/02/10 03:46:53;;;;;;;17.40;9.48;;;7.50;99.90;;;;;;4930082;29;20509;-86
2024/02/10 03:49:20;;;;;;;13.15;8.23;;;7.80;99.90;;;;;;4935625;29;20048;-86
2024/02/10 03:51:47;;;;;;;18.35;9.07;;;7.60;99.90;;;;;;4930451;29;20043;-86
2024/02/10 03:54:13;;;;;;;18.85;8.68;;;7.60;99.90;;;;;;4938065;29;20043;-86
2024/02/10 03:56:41;;;;;;;19.63;8.40;;;7.70;99.90;;;;;;4937683;29;20035;-84
2024/02/10 03:59:08;;;;;;;17.23;9.02;;;7.70;99.90;;;;;;4927232;29;20040;-86
2024/02/10 04:01:35;;;;;;;17.98;9.02;;;7.80;99.90;;;;;;4937546;29;20819;-86
2024/02/10 04:04:01;;;;;;;19.27;8.75;;;7.70;99.90;;;;;;4937736;29;20040;-86
2024/02/10 04:06:28;;;;;;;18.58;8.93;;;7.70;99.90;;;;;;4945775;29;20050;-86
2024/02/10 04:08:57;;;;;;;15.75;8.45;;;7.70;99.90;;;;;;4940366;29;20044;-86
2024/02/10 04:11:24;;;;;;;15.48;8.43;;;7.70;99.90;;;;;;4953087;29;20058;-86
2024/02/10 04:13:52;;;;;;;18.65;8.57;;;7.70;99.90;;;;;;4928316;29;20048;-86
2024/02/10 04:16:19;;;;;;;23.75;8.98;;;7.80;99.90;;;;;;4931136;29;20080;-86
2024/02/10 04:18:45;;;;;;;17.83;9.13;;;7.80;99.90;;;;;;4946843;29;20130;-87
2024/02/10 04:21:13;;;;;;;18.10;8.98;;;7.70;99.90;;;;;;4932392;29;20408;-86
2024/02/10 04:23:40;;;;;;;20.40;9.57;;;8.00;99.90;;;;;;4937307;29;20123;-87
2024/02/10 04:26:07;;;;;;;20.65;9.15;;;7.80;99.90;;;;;;4938601;29;20075;-86
2024/02/10 04:28:34;;;;;;;19.75;9.10;;;7.80;99.90;;;;;;4950586;29;20062;-86
2024/02/10 04:31:00;;;;;;;17.30;8.85;;;7.80;99.90;;;;;;4937398;29;20074;-87
2024/02/10 04:33:27;;;;;;;20.30;8.48;;;7.90;99.90;;;;;;4953245;29;20066;-86
2024/02/10 04:35:54;;;;;;;16.10;8.48;;;8.70;99.90;;;;;;4940561;29;20043;-86
2024/02/10 04:38:22;;;;;;;16.67;8.50;;;7.90;99.90;;;;;;4936696;29;20048;-86
2024/02/10 04:40:48;;;;;;;20.67;8.40;;;7.90;99.90;;;;;;4950923;29;20082;-86
2024/02/10 04:43:17;;;;;;;14.32;7.82;;;7.90;99.90;;;;;;4948636;29;20086;-86
2024/02/10 04:45:44;;;;;;;14.27;8.40;;;7.90;99.90;;;;;;4962412;29;20048;-86
2024/02/10 04:48:13;;;;;;;15.07;8.77;;;7.90;99.90;;;;;;4936909;29;20050;-87
2024/02/10 04:50:41;;;;;;;18.52;8.77;;;7.90;99.90;;;;;;4952661;29;20071;-86
2024/02/10 04:53:08;;;;;;;16.80;7.95;;;7.90;99.90;;;;;;4937101;29;20122;-86
2024/02/10 04:55:36;;;;;;;17.98;8.85;;;8.50;99.90;;;;;;4934815;29;20043;-87
2024/02/10 04:58:03;;;;;;;16.05;8.88;;;7.80;99.90;;;;;;4935512;29;20052;-87
2024/02/10 05:00:32;;;;;;;13.88;8.05;;;7.80;99.90;;;;;;4939680;29;20043;-87
2024/02/10 05:03:02;;;;;;;19.73;8.55;;;7.80;99.90;;;;;;4940463;29;20501;-86
2024/02/10 05:05:29;;;;;;;18.45;9.05;;;7.80;99.90;;;;;;4940455;29;20046;-86
2024/02/10 05:07:56;;;;;;;14.40;8.55;;;7.80;99.90;;;;;;4942119;29;20048;-86
2024/02/10 05:10:24;;;;;;;17.52;8.10;;;8.60;99.90;;;;;;4936433;29;20048;-87
2024/02/10 05:12:52;;;;;;;19.77;7.93;;;7.70;99.90;;;;;;4940998;29;20043;-86
2024/02/10 05:15:21;;;;;;;17.10;8.30;;;7.90;99.90;;;;;;4939684;29;20094;-86
2024/02/10 05:17:49;;;;;;;17.73;7.85;;;8.10;99.90;;;;;;4956256;29;20043;-86
2024/02/10 05:20:21;;;;;;;14.27;8.00;;;7.60;99.90;;;;;;4930825;29;20039;-86
2024/02/10 05:22:57;;;;;;;18.80;8.23;;;7.50;99.90;;;;;;4940216;29;20385;-86
2024/02/10 05:25:34;;;;;;;20.15;8.48;;;8.10;99.90;;;;;;4937236;29;20108;-87
2024/02/10 05:28:01;;;;;;;14.00;7.97;;;7.40;99.90;;;;;;4935894;29;20071;-87
2024/02/10 05:30:28;;;;;;;14.27;8.00;;;7.80;99.90;;;;;;4936097;29;20132;-87
2024/02/10 05:32:59;;;;;;;14.48;8.07;;;7.40;99.90;;;;;;4945749;29;20148;-87
2024/02/10 05:35:26;;;;;;;16.98;8.23;;;7.40;99.90;;;;;;4925415;29;20064;-86
2024/02/10 05:37:58;;;;;;;13.13;7.65;;;7.40;99.90;;;;;;4939860;29;20071;-87
2024/02/10 05:40:27;;;;;;;14.32;7.68;;;8.20;99.90;;;;;;4939980;29;20035;-87
2024/02/10 05:42:58;;;;;;;15.25;8.38;;;7.80;99.90;;;;;;4939785;29;20039;-86
2024/02/10 05:45:25;;;;;;;14.43;7.88;;;7.50;99.90;;;;;;4939976;29;20047;-86
2024/02/10 05:47:52;;;;;;;13.90;7.90;;;7.40;99.90;;;;;;4939614;29;20039;-86
2024/02/10 05:50:23;;;;;;;19.58;8.20;;;7.40;99.90;;;;;;4952527;29;20055;-86
2024/02/10 05:52:57;;;;;;;16.85;8.20;;;7.30;99.90;;;;;;4953720;29;20091;-87
2024/02/10 05:55:28;;;;;;;20.02;8.13;;;7.30;99.90;;;;;;4939803;29;20032;-87
2024/02/10 05:57:55;;;;;;;17.15;8.00;;;7.60;99.90;;;;;;4939784;29;20043;-87
2024/02/10 06:00:22;;;;;;;14.38;8.05;;;7.20;99.90;;;;;;4940175;29;20051;-86
2024/02/10 06:02:49;;;;;;;17.42;7.95;;;7.20;99.90;;;;;;4955407;29;20032;-87
2024/02/10 06:05:17;;;;;;;16.20;8.00;;;7.20;99.90;;;;;;4938319;29;20404;-87
2024/02/10 06:07:45;;;;;;;18.73;7.88;;;7.30;99.90;;;;;;4938023;29;20044;-87
2024/02/10 06:10:13;;;;;;;17.75;8.00;;;7.70;99.90;;;;;;4939379;29;20122;-87
2024/02/10 06:12:43;;;;;;;17.27;8.57;;;7.30;99.90;;;;;;4939762;29;20111;-87
2024/02/10 06:15:10;;;;;;;15.50;8.30;;;7.30;99.90;;;;;;4930458;29;20404;-87
2024/02/10 06:17:40;;;;;;;16.83;8.52;;;7.40;99.90;;;;;;4936303;29;20036;-87
2024/02/10 06:20:12;;;;;;;19.48;8.52;;;7.50;99.90;;;;;;4933489;29;20122;-87
2024/02/10 06:22:40;;;;;;;24.02;9.05;;;7.40;99.90;;;;;;4939713;29;20191;-87
2024/02/10 06:25:11;;;;;;;18.77;8.52;;;7.40;99.90;;;;;;4951901;29;20099;-87
2024/02/10 06:27:45;;;;;;;20.05;8.63;;;7.40;99.90;;;;;;4932530;29;20130;-87
2024/02/10 06:30:16;;;;;;;13.93;8.57;;;7.40;99.90;;;;;;4939504;29;20048;-87
2024/02/10 06:32:44;;;;;;;15.68;9.07;;;7.40;99.90;;;;;;4927278;29;20709;-87
2024/02/10 06:35:11;;;;;;;19.15;9.00;;;7.50;99.90;;;;;;4938911;29;20062;-87
2024/02/10 06:37:40;;;;;;;15.27;8.75;;;7.50;99.90;;;;;;4936706;29;20123;-87
2024/02/10 06:40:08;;;;;;;17.00;9.35;;;7.50;99.90;;;;;;4953534;29;20552;-87
2024/02/10 06:42:36;;;;;;;19.33;9.45;;;7.50;99.90;;;;;;4938986;29;20039;-88
2024/02/10 06:45:14;;;;;;;17.77;9.88;;;7.50;99.90;;;;;;4938912;29;20498;-87
2024/02/10 06:47:45;;;;;;;18.00;9.02;;;7.50;99.90;;;;;;4938656;29;20485;-87
2024/02/10 06:50:20;;;;;;;18.27;9.60;;;8.00;99.90;;;;;;4937771;29;20039;-87
2024/02/10 06:52:47;;;;;;;23.65;9.32;;;7.70;99.90;;;;;;4936785;29;20044;-87
2024/02/10 06:55:14;;;;;;;18.08;9.88;;;7.60;99.90;;;;;;4939429;29;20112;-87
2024/02/10 06:57:42;;;;;;;25.13;9.95;;;7.60;99.90;;;;;;4943522;29;20062;-87
2024/02/10 07:00:10;;;;;;;20.48;10.70;;;7.60;99.90;;;;;;4938388;29;20114;-87
2024/02/10 07:02:38;;;;;;;22.40;11.15;;;7.70;99.90;;;;;;4946329;29;20477;-87
2024/02/10 07:05:05;;;;;;;24.67;12.68;;;7.60;99.90;;;;;;4938472;29;20143;-87
2024/02/10 07:07:32;;;;;;;23.25;10.52;;;7.70;99.90;;;;;;4937697;29;20043;-87
2024/02/10 07:09:59;;;;;;;19.17;10.57;;;7.90;99.90;;;;;;4953783;29;20047;-87
2024/02/10 07:12:26;;;;;;;20.63;11.10;;;7.70;99.90;;;;;;4932807;29;20125;-86
2024/02/10 07:14:56;;;;;;;24.17;11.60;;;7.70;99.90;;;;;;4932098;29;20039;-87
2024/02/10 07:17:23;;;;;;;23.65;12.05;;;7.70;99.90;;;;;;4941256;29;20036;-87
2024/02/10 07:19:51;;;;;;;22.45;12.90;;;7.70;99.90;;;;;;4953460;29;20050;-88
2024/02/10 07:22:18;;;;;;;25.77;12.00;;;8.50;99.90;;;;;;4937121;29;20188;-87
2024/02/10 07:24:48;;;;;;;23.67;11.57;;;7.80;99.90;;;;;;4938283;29;20127;-87
2024/02/10 07:27:17;;;;;;;21.38;11.52;;;8.10;99.90;;;;;;4937739;29;20521;-88
2024/02/10 07:29:45;;;;;;;22.55;11.80;;;7.80;99.90;;;;;;4937524;29;20514;-88
2024/02/10 07:32:12;;;;;;;23.45;11.95;;;7.80;99.90;;;;;;4938039;29;20130;-88
2024/02/10 07:34:40;;;;;;;22.65;11.90;;;7.80;99.90;;;;;;4941177;29;20040;-88
2024/02/10 07:37:08;;;;;;;23.65;12.30;;;7.90;99.90;;;;;;4938046;29;20046;-88
2024/02/10 07:39:35;;;;;;;24.23;12.35;;;8.20;99.90;;;;;;4938212;29;20050;-88
2024/02/10 07:42:02;;;;;;;27.60;14.07;;;8.70;99.90;;;;;;4953062;29;20047;-87
2024/02/10 07:44:28;;;;;;;27.58;13.23;;;7.90;99.90;;;;;;4937621;29;20039;-87
2024/02/10 07:46:55;;;;;;;28.25;13.63;;;8.20;99.90;;;;;;4937909;29;20114;-87
2024/02/10 07:49:22;;;;;;;22.65;11.75;;;8.00;99.90;;;;;;4937409;29;20112;-88
2024/02/10 07:51:49;;;;;;;22.92;11.70;;;8.20;99.90;;;;;;4937643;29;20054;-87
2024/02/10 07:54:20;;;;;;;23.17;12.13;;;8.00;99.90;;;;;;4935398;29;20044;-88
2024/02/10 07:56:46;;;;;;;21.80;11.63;;;8.10;99.90;;;;;;4937502;29;20043;-86
2024/02/10 07:59:13;;;;;;;25.05;12.82;;;8.80;99.90;;;;;;4937941;29;20102;-87
2024/02/10 08:01:41;;;;;;;26.38;14.27;;;8.10;99.90;;;;;;4937526;29;20051;-88
2024/02/10 08:04:10;;;;;;;27.98;12.98;;;8.70;99.90;;;;;;4937439;29;20035;-87
2024/02/10 08:06:37;;;;;;;21.52;11.80;;;8.20;99.90;;;;;;4939009;29;20484;-85
2024/02/10 08:09:07;;;;;;;22.08;12.18;;;8.30;99.90;;;;;;4952938;29;20043;-87
2024/02/10 08:11:34;;;;;;;21.30;12.18;;;8.20;99.90;;;;;;4945424;29;20094;-87
2024/02/10 08:14:00;;;;;;;24.77;12.55;;;8.20;99.90;;;;;;4943123;29;20039;-87
2024/02/10 08:16:30;;;;;;;25.45;13.00;;;8.30;99.90;;;;;;4925498;29;20123;-87
2024/02/10 08:18:57;;;;;;;21.08;11.77;;;8.30;99.90;;;;;;4933469;29;20035;-87
2024/02/10 08:21:26;;;;;;;23.65;11.57;;;8.50;99.90;;;;;;4934464;29;20490;-87
2024/02/10 08:23:57;;;;;;;23.05;11.52;;;8.30;99.90;;;;;;4937227;29;20095;-86
2024/02/10 08:26:25;;;;;;;24.70;11.10;;;8.50;99.90;;;;;;4952727;29;20047;-88
2024/02/10 08:28:55;;;;;;;29.85;12.50;;;8.40;99.90;;;;;;4932493;29;20104;-88
2024/02/10 08:31:23;;;;;;;22.75;10.88;;;8.50;99.90;;;;;;4916964;29;20467;-88
2024/02/10 08:33:50;;;;;;;21.60;11.07;;;8.50;99.90;;;;;;4921373;29;20036;-88
2024/02/10 08:36:20;;;;;;;22.77;11.23;;;8.50;99.90;;;;;;4924454;29;20135;-88
2024/02/10 08:38:48;;;;;;;23.20;11.52;;;8.50;99.90;;;;;;4924092;29;20088;-87
2024/02/10 08:41:17;;;;;;;23.42;11.02;;;8.50;99.90;;;;;;4921080;29;20048;-88
2024/02/10 08:43:47;;;;;;;22.10;10.95;;;9.40;99.90;;;;;;4922220;29;20043;-88
2024/02/10 08:46:18;;;;;;;21.95;10.88;;;8.60;99.90;;;;;;4924414;29;20055;-87
2024/02/10 08:48:45;;;;;;;23.33;12.18;;;8.60;99.90;;;;;;4924417;29;20078;-87
2024/02/10 08:51:12;;;;;;;20.67;10.88;;;9.70;99.90;;;;;;4922653;29;20505;-88
2024/02/10 08:53:40;;;;;;;20.98;10.80;;;8.70;99.90;;;;;;4920983;29;20127;-88
2024/02/10 08:56:10;;;;;;;20.98;11.00;;;8.80;99.90;;;;;;4920362;29;20107;-88
2024/02/10 08:58:41;;;;;;;22.08;11.25;;;9.50;99.90;;;;;;4927720;29;20072;-88
2024/02/10 09:01:15;;;;;;;19.35;10.45;;;8.90;99.90;;;;;;4926670;29;20107;-88
2024/02/10 09:03:50;;;;;;;25.80;11.90;;;9.00;99.90;;;;;;4923818;29;20097;-88
2024/02/10 09:06:22;;;;;;;19.75;10.60;;;9.00;99.90;;;;;;4923210;29;20055;-88
2024/02/10 09:08:52;;;;;;;24.25;11.82;;;9.10;99.90;;;;;;4939943;29;20425;-87
2024/02/10 09:11:19;;;;;;;25.60;10.50;;;9.70;99.90;;;;;;4924052;29;20111;-87
2024/02/10 09:13:48;;;;;;;24.13;11.00;;;9.40;99.90;;;;;;4923483;29;20055;-88
2024/02/10 09:16:15;;;;;;;19.85;10.05;;;9.20;99.90;;;;;;4922023;29;20050;-88
2024/02/10 09:18:44;;;;;;;19.05;10.10;;;9.20;99.90;;;;;;4924038;29;20040;-88
2024/02/10 09:21:19;;;;;;;19.83;10.73;;;9.30;99.90;;;;;;4924530;29;20079;-88
2024/02/10 09:23:49;;;;;;;23.73;10.55;;;9.30;99.90;;;;;;4923101;29;20051;-89
2024/02/10 09:26:20;;;;;;;19.42;10.35;;;10.20;99.90;;;;;;4917114;29;20048;-88
2024/02/10 09:28:46;;;;;;;19.35;9.27;;;9.40;99.90;;;;;;4927473;29;20060;-88
2024/02/10 09:31:14;;;;;;;18.88;10.00;;;9.40;99.90;;;;;;4943278;29;20131;-88
2024/02/10 09:33:42;;;;;;;19.75;9.85;;;9.50;99.90;;;;;;4943504;29;20040;-88
2024/02/10 09:36:11;;;;;;;16.67;9.23;;;9.50;99.90;;;;;;4946801;29;20053;-87
2024/02/10 09:38:40;;;;;;;17.30;9.57;;;9.50;99.90;;;;;;4941591;29;20086;-89
2024/02/10 09:41:08;;;;;;;18.17;9.40;;;9.60;99.90;;;;;;4942386;29;20050;-89
2024/02/10 09:43:40;;;;;;;17.33;9.25;;;9.60;99.90;;;;;;4938994;29;20485;-88
2024/02/10 09:46:07;;;;;;;17.00;8.82;;;9.60;99.90;;;;;;4938411;29;20119;-88
2024/02/10 09:48:44;;;;;;;14.98;8.50;;;9.70;99.90;;;;;;4940077;29;20483;-87
2024/02/10 09:51:11;;;;;;;17.23;8.52;;;9.70;99.90;;;;;;4939949;29;20044;-88
2024/02/10 09:53:41;;;;;;;16.23;8.50;;;9.70;99.90;;;;;;4939356;29;20040;-90
2024/02/10 09:56:10;;;;;;;16.15;8.88;;;9.80;99.90;;;;;;4944437;29;20510;-85
2024/02/10 09:58:51;;;;;;;15.65;8.77;;;9.90;99.90;;;;;;4939057;29;20111;-88
2024/02/10 10:01:18;;;;;;;14.95;8.38;;;10.10;99.90;;;;;;4939190;29;20099;-88
2024/02/10 10:03:45;;;;;;;17.33;7.65;;;10.00;99.90;;;;;;4939660;29;20103;-88
2024/02/10 10:06:14;;;;;;;15.73;7.80;;;10.10;99.90;;;;;;4938595;29;20039;-86
2024/02/10 10:08:42;;;;;;;16.42;8.23;;;10.10;99.90;;;;;;4938560;29;20744;-87
2024/02/10 10:11:09;;;;;;;16.40;7.80;;;10.30;99.90;;;;;;4939063;29;20409;-86
2024/02/10 10:13:40;;;;;;;14.45;7.90;;;10.70;99.90;;;;;;4954052;29;20051;-87
2024/02/10 10:16:10;;;;;;;13.27;7.30;;;10.30;99.90;;;;;;4939041;29;20512;-86
2024/02/10 10:18:37;;;;;;;11.80;7.20;;;10.30;99.90;;;;;;4930443;29;20386;-87
2024/02/10 10:21:04;;;;;;;15.55;8.05;;;10.40;99.90;;;;;;4938684;29;20043;-86
2024/02/10 10:23:33;;;;;;;15.73;7.95;;;10.40;99.90;;;;;;4939076;29;20039;-87
2024/02/10 10:26:00;;;;;;;13.90;7.15;;;10.50;99.90;;;;;;4954255;29;20098;-86
2024/02/10 10:28:27;;;;;;;16.80;6.85;;;10.60;99.90;;;;;;4938941;29;20056;-87
2024/02/10 10:30:57;;;;;;;15.07;6.80;;;10.60;99.90;;;;;;4952724;29;20666;-88
2024/02/10 10:33:25;;;;;;;11.80;6.70;;;10.70;99.90;;;;;;4929678;29;20044;-87
2024/02/10 10:35:54;;;;;;;12.65;7.55;;;10.70;99.90;;;;;;4938684;29;20417;-86
2024/02/10 10:38:21;;;;;;;14.73;8.27;;;10.90;99.90;;;;;;4938985;29;20401;-87
2024/02/10 10:40:52;;;;;;;12.07;7.80;;;10.90;99.90;;;;;;4938872;29;20831;-87
2024/02/10 10:43:23;;;;;;;15.40;7.28;;;10.90;99.90;;;;;;4953819;29;20122;-89
2024/02/10 10:45:50;;;;;;;11.30;7.70;;;10.90;99.90;;;;;;4953945;29;20059;-88
2024/02/10 10:48:16;;;;;;;16.80;7.50;;;11.00;99.90;;;;;;4933904;29;20039;-89
2024/02/10 10:50:43;;;;;;;13.38;7.38;;;11.00;99.90;;;;;;4931018;29;20453;-87
2024/02/10 10:53:10;;;;;;;12.68;6.95;;;11.20;99.90;;;;;;4954362;29;20043;-87
2024/02/10 10:55:43;;;;;;;13.80;7.80;;;11.20;99.90;;;;;;4937183;29;20039;-88
2024/02/10 10:58:38;;;;;;;13.55;6.80;;;11.50;99.90;;;;;;4930175;29;20103;-87
2024/02/10 11:01:08;;;;;;;10.40;6.70;;;11.20;99.90;;;;;;4933259;29;20130;-87
2024/02/10 11:03:37;;;;;;;11.52;6.70;;;11.20;99.90;;;;;;4924698;29;20036;-87
2024/02/10 11:06:11;;;;;;;10.85;7.13;;;11.30;99.90;;;;;;4944851;29;20122;-87
2024/02/10 11:08:41;;;;;;;12.93;7.25;;;11.30;99.90;;;;;;4919379;29;20054;-87
2024/02/10 11:11:12;;;;;;;12.63;7.03;;;11.40;99.90;;;;;;4927221;29;20044;-89
2024/02/10 11:13:38;;;;;;;12.45;6.75;;;11.40;99.90;;;;;;4933813;29;20071;-89
2024/02/10 11:16:12;;;;;;;12.10;7.03;;;11.40;99.90;;;;;;4934070;29;20074;-87
2024/02/10 11:18:45;;;;;;;10.48;6.90;;;11.40;99.90;;;;;;4935677;29;20441;-89
2024/02/10 11:21:19;;;;;;;11.20;6.68;;;11.50;99.90;;;;;;4933045;29;20050;-88
2024/02/10 11:24:11;;;;;;;12.60;7.20;;;11.50;99.90;;;;;;4937559;29;20453;-88
2024/02/10 11:26:42;;;;;;;10.63;6.40;;;11.60;99.90;;;;;;4938073;29;20047;-88
2024/02/10 11:29:13;;;;;;;12.00;6.05;;;11.60;99.90;;;;;;4937576;29;20095;-88
2024/02/10 11:31:40;;;;;;;10.13;6.20;;;11.60;99.90;;;;;;4950739;29;20126;-88
2024/02/10 11:34:16;;;;;;;13.00;6.13;;;11.40;99.90;;;;;;4931705;29;20800;-88
2024/02/10 11:36:54;;;;;;;10.73;5.90;;;11.70;99.90;;;;;;4927583;29;20061;-88
2024/02/10 11:39:22;;;;;;;10.30;5.95;;;11.70;99.90;;;;;;4953622;29;20046;-88
2024/02/10 11:41:54;;;;;;;10.98;5.30;;;11.80;99.90;;;;;;4932141;29;20048;-88
2024/02/10 11:44:26;;;;;;;11.35;5.40;;;11.80;99.90;;;;;;4940710;29;20051;-89
2024/02/10 11:46:52;;;;;;;11.18;5.60;;;11.80;99.90;;;;;;4937650;29;20500;-89
2024/02/10 11:49:21;;;;;;;9.35;5.18;;;11.90;99.90;;;;;;4927982;29;20046;-88
2024/02/10 11:51:56;;;;;;;8.32;5.25;;;11.80;99.90;;;;;;4944175;29;20151;-88
2024/02/10 11:54:26;;;;;;;9.02;5.07;;;12.20;99.90;;;;;;4930299;29;20035;-89
2024/02/10 11:56:53;;;;;;;11.07;4.85;;;11.90;99.90;;;;;;4928489;29;20071;-88
2024/02/10 11:59:20;;;;;;;9.90;5.13;;;12.20;99.90;;;;;;4937792;29;20036;-88
2024/02/10 12:01:47;;;;;;;7.78;4.57;;;11.90;99.90;;;;;;4937418;29;20094;-87
2024/02/10 12:04:17;;;;;;;8.90;5.57;;;11.90;99.90;;;;;;4937362;29;20525;-87
2024/02/10 12:06:46;;;;;;;10.77;4.53;;;12.10;99.90;;;;;;4934271;29;20055;-88
2024/02/10 12:09:12;;;;;;;10.60;4.95;;;12.00;99.90;;;;;;4949237;29;20497;-86
2024/02/10 12:11:39;;;;;;;10.23;5.50;;;12.40;99.90;;;;;;4932190;29;20039;-87
2024/02/10 12:14:13;;;;;;;8.27;4.63;;;12.10;99.90;;;;;;4934096;29;20051;-87
2024/02/10 12:16:44;;;;;;;8.70;4.80;;;12.10;99.90;;;;;;4931780;29;20071;-87
2024/02/10 12:19:11;;;;;;;7.38;4.57;;;12.20;99.90;;;;;;4945613;29;20051;-87
2024/02/10 12:21:41;;;;;;;9.43;4.85;;;12.20;99.90;;;;;;4936701;29;20552;-87
2024/02/10 12:24:16;;;;;;;8.30;4.93;;;12.30;99.90;;;;;;4936880;29;20048;-87
2024/02/10 12:26:43;;;;;;;6.97;4.63;;;12.30;99.90;;;;;;4936633;29;20039;-87
2024/02/10 12:29:11;;;;;;;6.95;4.55;;;12.30;99.90;;;;;;4926953;29;20468;-87
2024/02/10 12:31:39;;;;;;;8.93;4.40;;;12.30;99.90;;;;;;4930424;29;20046;-88
2024/02/10 12:34:06;;;;;;;7.28;4.43;;;12.40;99.90;;;;;;4951290;29;20043;-88
2024/02/10 12:36:33;;;;;;;9.35;4.40;;;12.40;99.90;;;;;;4936676;29;20438;-88
2024/02/10 12:39:00;;;;;;;9.77;4.20;;;12.50;99.90;;;;;;4936422;29;20036;-88
2024/02/10 12:41:27;;;;;;;9.43;4.00;;;12.50;99.90;;;;;;4936896;29;20051;-90
2024/02/10 12:43:54;;;;;;;8.43;3.88;;;12.60;99.90;;;;;;4936883;29;20075;-88
2024/02/10 12:46:20;;;;;;;10.38;4.00;;;12.60;99.90;;;;;;4934568;29;20075;-87
2024/02/10 12:48:50;;;;;;;8.90;4.30;;;12.60;99.90;;;;;;4927774;29;20054;-88
2024/02/10 12:51:17;;;;;;;9.00;4.45;;;12.50;99.90;;;;;;4934726;29;20039;-87